Time;durP1;ratioP1;P1;durP2;ratioP2;P2;SDS_P1;SDS_P2;PMS_P1;PMS_P2;Temp;Humidity;BMP_temperature;BMP_pressure;BME280_temperature;BME280_humidity;BME280_pressure;Samples;Min_cycle;Max_cycle;Signal;HPM_P1;HPM_P2
2022/11/10 00:00:33;;;;;;;6.73;3.43;;;;;;;;;;5114271;28;20446;-67
2022/11/10 00:03:04;;;;;;;5.73;3.57;;;;;;;;;;5114161;28;20967;-67
2022/11/10 00:05:31;;;;;;;12.77;3.17;;;;;;;;;;5114649;28;20481;-67
2022/11/10 00:08:02;;;;;;;8.30;3.50;;;;;;;;;;5114093;28;20442;-68
2022/11/10 00:10:29;;;;;;;12.00;3.57;;;;;;;;;;5114075;28;20940;-67
2022/11/10 00:13:01;;;;;;;5.57;3.23;;;;;;;;;;5113939;28;20458;-68
2022/11/10 00:18:13;;;;;;;5.60;3.57;;;;;;;;;;5114038;28;20396;-67
2022/11/10 00:20:40;;;;;;;7.67;3.47;;;;;;;;;;5113895;28;20449;-67
2022/11/10 00:23:08;;;;;;;5.07;3.20;;;;;;;;;;5114468;28;20468;-67
2022/11/10 00:25:35;;;;;;;6.13;3.20;;;;;;;;;;5113790;28;20527;-67
2022/11/10 00:28:03;;;;;;;6.50;3.30;;;;;;;;;;5113994;28;20449;-67
2022/11/10 00:30:31;;;;;;;7.07;3.43;;;;;;;;;;5114112;28;20438;-67
2022/11/10 00:32:58;;;;;;;9.30;3.20;;;;;;;;;;5113941;28;20837;-67
2022/11/10 00:35:25;;;;;;;11.90;3.27;;;;;;;;;;5114078;28;20529;-68
2022/11/10 00:37:52;;;;;;;10.47;3.60;;;;;;;;;;5113885;28;20442;-67
2022/11/10 00:40:19;;;;;;;13.70;3.77;;;;;;;;;;5113905;28;20523;-68
2022/11/10 00:42:47;;;;;;;11.83;4.07;;;;;;;;;;5113760;28;20524;-68
2022/11/10 00:45:15;;;;;;;10.47;3.60;;;;;;;;;;5114224;28;20524;-68
2022/11/10 00:47:42;;;;;;;10.30;3.80;;;;;;;;;;5113767;28;20484;-67
2022/11/10 00:50:10;;;;;;;10.52;3.60;;;;;;;;;;5113559;28;20445;-67
2022/11/10 00:52:37;;;;;;;10.63;3.37;;;;;;;;;;5113713;28;20195;-68
2022/11/10 00:55:04;;;;;;;11.37;3.10;;;;;;;;;;5113531;28;20445;-68
2022/11/10 00:57:31;;;;;;;11.63;3.73;;;;;;;;;;5113353;28;20439;-67
2022/11/10 00:59:59;;;;;;;12.93;3.40;;;;;;;;;;5114046;28;20819;-67
2022/11/10 01:02:28;;;;;;;11.13;3.50;;;;;;;;;;5113623;28;20545;-67
2022/11/10 01:04:55;;;;;;;10.43;3.13;;;;;;;;;;5113613;28;20445;-67
2022/11/10 01:07:22;;;;;;;11.02;4.07;;;;;;;;;;5113337;28;20438;-67
2022/11/10 01:09:50;;;;;;;9.73;3.80;;;;;;;;;;5113354;28;20195;-68
2022/11/10 01:12:17;;;;;;;12.15;3.80;;;;;;;;;;5113659;28;20535;-67
2022/11/10 01:14:44;;;;;;;13.57;4.20;;;;;;;;;;5113575;28;20557;-67
2022/11/10 01:17:11;;;;;;;13.10;3.93;;;;;;;;;;5113620;28;20521;-67
2022/11/10 01:19:42;;;;;;;9.53;3.70;;;;;;;;;;5113229;28;20451;-67
2022/11/10 01:22:09;;;;;;;9.60;3.73;;;;;;;;;;5113631;28;20438;-67
2022/11/10 01:24:36;;;;;;;6.63;3.25;;;;;;;;;;5113469;28;20439;-67
2022/11/10 01:27:03;;;;;;;8.57;3.90;;;;;;;;;;5113858;28;20305;-67
2022/11/10 01:29:31;;;;;;;8.47;3.10;;;;;;;;;;5113404;28;20439;-67
2022/11/10 01:31:58;;;;;;;9.85;4.75;;;;;;;;;;5113122;28;20449;-67
2022/11/10 01:34:25;;;;;;;7.45;3.60;;;;;;;;;;5113323;28;20553;-67
2022/11/10 01:36:53;;;;;;;9.90;4.10;;;;;;;;;;5114881;28;20193;-67
2022/11/10 01:39:21;;;;;;;12.60;4.03;;;;;;;;;;5117253;28;20234;-67
2022/11/10 01:41:48;;;;;;;11.60;4.80;;;;;;;;;;5117256;28;20791;-67
2022/11/10 01:44:16;;;;;;;4.87;4.00;;;;;;;;;;5117301;28;20449;-67
2022/11/10 01:46:44;;;;;;;12.93;3.63;;;;;;;;;;5117378;28;20478;-67
2022/11/10 01:49:12;;;;;;;8.40;4.80;;;;;;;;;;5117243;28;20451;-67
2022/11/10 01:51:41;;;;;;;14.63;6.03;;;;;;;;;;5117533;28;20189;-67
2022/11/10 01:54:11;;;;;;;12.70;4.45;;;;;;;;;;5116912;28;20444;-67
2022/11/10 01:56:40;;;;;;;13.20;4.60;;;;;;;;;;5117313;28;20197;-67
2022/11/10 01:59:11;;;;;;;7.10;3.50;;;;;;;;;;5116506;28;20447;-68
2022/11/10 02:01:38;;;;;;;6.20;4.20;;;;;;;;;;5116976;28;20518;-66
2022/11/10 02:04:07;;;;;;;14.03;5.40;;;;;;;;;;5116736;28;20200;-67
2022/11/10 02:06:36;;;;;;;13.90;4.10;;;;;;;;;;5116374;28;20474;-67
2022/11/10 02:09:03;;;;;;;9.43;4.15;;;;;;;;;;5116320;28;20438;-68
2022/11/10 02:11:32;;;;;;;10.18;4.90;;;;;;;;;;5116639;28;20193;-67
2022/11/10 02:14:00;;;;;;;12.60;4.40;;;;;;;;;;5116738;28;20196;-67
2022/11/10 02:16:27;;;;;;;8.63;5.40;;;;;;;;;;5116493;28;20819;-67
2022/11/10 02:18:55;;;;;;;12.40;4.15;;;;;;;;;;5116362;28;20439;-66
2022/11/10 02:21:23;;;;;;;14.90;4.80;;;;;;;;;;5116200;28;20288;-67
2022/11/10 02:23:51;;;;;;;11.90;5.73;;;;;;;;;;5116471;28;20442;-67
2022/11/10 02:26:19;;;;;;;13.93;4.60;;;;;;;;;;5116352;28;20887;-67
2022/11/10 02:28:47;;;;;;;8.37;4.13;;;;;;;;;;5115922;28;21026;-67
2022/11/10 02:31:14;;;;;;;8.70;4.20;;;;;;;;;;5116190;28;20445;-67
2022/11/10 02:33:41;;;;;;;9.13;4.10;;;;;;;;;;5116127;28;20445;-68
2022/11/10 02:36:08;;;;;;;8.45;4.68;;;;;;;;;;5116161;28;20782;-66
2022/11/10 02:38:37;;;;;;;10.10;3.97;;;;;;;;;;5116103;28;20232;-67
2022/11/10 02:41:04;;;;;;;8.40;4.67;;;;;;;;;;5116298;28;20449;-68
2022/11/10 02:43:32;;;;;;;15.83;5.03;;;;;;;;;;5116585;28;20488;-68
2022/11/10 02:45:59;;;;;;;13.70;4.83;;;;;;;;;;5115914;28;20484;-68
2022/11/10 02:48:26;;;;;;;11.30;4.37;;;;;;;;;;5115637;28;20454;-69
2022/11/10 02:50:53;;;;;;;6.88;4.32;;;;;;;;;;5115955;28;20808;-68
2022/11/10 02:53:20;;;;;;;16.33;5.03;;;;;;;;;;5116606;28;20200;-68
2022/11/10 02:55:49;;;;;;;15.73;5.90;;;;;;;;;;5115816;28;20442;-68
2022/11/10 02:58:16;;;;;;;16.23;4.73;;;;;;;;;;5115469;28;20959;-67
2022/11/10 03:00:43;;;;;;;13.10;5.80;;;;;;;;;;5115356;28;21012;-67
2022/11/10 03:03:10;;;;;;;11.40;5.03;;;;;;;;;;5115664;28;20440;-67
2022/11/10 03:05:38;;;;;;;17.37;4.30;;;;;;;;;;5115178;28;20443;-68
2022/11/10 03:08:05;;;;;;;14.20;5.53;;;;;;;;;;5116080;28;20796;-68
2022/11/10 03:10:32;;;;;;;10.10;5.05;;;;;;;;;;5115659;28;20942;-67
2022/11/10 03:13:02;;;;;;;16.23;5.43;;;;;;;;;;5115770;28;20195;-67
2022/11/10 03:15:29;;;;;;;21.00;5.97;;;;;;;;;;5115562;28;20515;-67
2022/11/10 03:17:58;;;;;;;16.60;6.30;;;;;;;;;;5115641;28;20451;-67
2022/11/10 03:20:25;;;;;;;15.57;6.60;;;;;;;;;;5115257;28;20872;-67
2022/11/10 03:22:52;;;;;;;18.70;5.70;;;;;;;;;;5115913;28;20814;-67
2022/11/10 03:25:19;;;;;;;10.25;6.45;;;;;;;;;;5115507;28;20464;-67
2022/11/10 03:27:47;;;;;;;18.20;6.17;;;;;;;;;;5115137;28;20226;-67
2022/11/10 03:30:15;;;;;;;17.83;5.90;;;;;;;;;;5115280;28;20796;-67
2022/11/10 03:32:42;;;;;;;16.67;6.83;;;;;;;;;;5114779;28;20193;-67
2022/11/10 03:35:10;;;;;;;17.85;7.05;;;;;;;;;;5115050;28;20465;-67
2022/11/10 03:37:37;;;;;;;17.07;7.40;;;;;;;;;;5115244;28;20204;-66
2022/11/10 03:40:05;;;;;;;13.47;6.50;;;;;;;;;;5115267;28;20443;-66
2022/11/10 03:42:32;;;;;;;16.83;6.65;;;;;;;;;;5115097;28;20470;-67
2022/11/10 03:44:59;;;;;;;19.42;8.15;;;;;;;;;;5115438;28;20193;-67
2022/11/10 03:47:28;;;;;;;16.90;7.40;;;;;;;;;;5114461;28;20219;-67
2022/11/10 03:49:55;;;;;;;18.70;7.43;;;;;;;;;;5114893;28;20434;-67
2022/11/10 03:52:22;;;;;;;18.63;7.27;;;;;;;;;;5114785;28;20447;-66
2022/11/10 03:54:49;;;;;;;12.10;6.93;;;;;;;;;;5114594;28;20445;-67
2022/11/10 03:57:16;;;;;;;16.60;6.27;;;;;;;;;;5114661;28;20212;-67
2022/11/10 03:59:43;;;;;;;14.03;5.40;;;;;;;;;;5113843;28;20442;-67
2022/11/10 04:02:11;;;;;;;30.23;7.22;;;;;;;;;;5114579;28;20449;-66
2022/11/10 04:10:10;;;;;;;13.07;6.70;;;;;;;;;;5114193;28;20199;-67
2022/11/10 04:18:23;;;;;;;22.80;7.45;;;;;;;;;;5114155;28;20402;-67
2022/11/10 04:20:53;;;;;;;16.02;7.13;;;;;;;;;;5114595;28;20204;-67
2022/11/10 04:23:33;;;;;;;24.20;7.10;;;;;;;;;;5114468;28;20242;-67
2022/11/10 04:28:47;;;;;;;14.85;6.75;;;;;;;;;;5114098;28;20667;-67
2022/11/10 04:31:14;;;;;;;19.10;7.32;;;;;;;;;;5114256;28;20196;-67
2022/11/10 04:33:42;;;;;;;15.85;6.93;;;;;;;;;;5113690;28;20203;-67
2022/11/10 04:36:11;;;;;;;13.27;6.03;;;;;;;;;;5113860;28;20284;-67
2022/11/10 04:38:39;;;;;;;12.63;5.90;;;;;;;;;;5113649;28;20442;-68
2022/11/10 04:41:06;;;;;;;24.40;6.70;;;;;;;;;;5113490;28;20458;-68
2022/11/10 04:43:34;;;;;;;11.70;6.40;;;;;;;;;;5114170;28;20489;-67
2022/11/10 04:46:01;;;;;;;11.73;5.90;;;;;;;;;;5113911;28;20770;-67
2022/11/10 04:48:29;;;;;;;16.00;6.47;;;;;;;;;;5113617;28;20943;-68
2022/11/10 04:50:56;;;;;;;17.55;6.22;;;;;;;;;;5113396;28;20457;-67
2022/11/10 04:53:25;;;;;;;24.80;5.90;;;;;;;;;;5113861;28;20218;-67
2022/11/10 04:55:52;;;;;;;22.83;6.63;;;;;;;;;;5113419;28;20448;-67
2022/11/10 04:58:19;;;;;;;14.55;5.30;;;;;;;;;;5112606;28;20201;-67
2022/11/10 05:00:46;;;;;;;19.17;7.30;;;;;;;;;;5113024;28;20199;-68
2022/11/10 05:03:14;;;;;;;26.38;6.47;;;;;;;;;;5113426;28;20264;-68
2022/11/10 05:05:41;;;;;;;20.47;6.43;;;;;;;;;;5113606;28;20280;-67
2022/11/10 05:08:09;;;;;;;15.23;6.20;;;;;;;;;;5113401;28;20478;-67
2022/11/10 05:10:38;;;;;;;27.43;5.93;;;;;;;;;;5114148;28;20447;-67
2022/11/10 05:13:06;;;;;;;14.90;5.38;;;;;;;;;;5117971;28;20495;-67
2022/11/10 05:15:33;;;;;;;17.13;6.10;;;;;;;;;;5117587;28;20646;-67
2022/11/10 05:18:01;;;;;;;19.77;6.40;;;;;;;;;;5118252;28;20283;-67
2022/11/10 05:20:28;;;;;;;12.40;5.88;;;;;;;;;;5117609;28;20442;-67
2022/11/10 05:25:43;;;;;;;15.07;6.10;;;;;;;;;;5117495;28;20402;-68
2022/11/10 05:28:12;;;;;;;11.67;5.90;;;;;;;;;;5116911;28;20530;-67
2022/11/10 05:30:39;;;;;;;25.03;8.87;;;;;;;;;;5117044;28;20439;-67
2022/11/10 05:33:07;;;;;;;21.60;7.05;;;;;;;;;;5116791;28;20450;-67
2022/11/10 05:35:34;;;;;;;19.37;7.00;;;;;;;;;;5117406;28;20292;-67
2022/11/10 05:38:01;;;;;;;14.63;6.25;;;;;;;;;;5116911;28;20448;-66
2022/11/10 05:40:28;;;;;;;18.73;7.07;;;;;;;;;;5117017;28;20192;-67
2022/11/10 05:42:57;;;;;;;12.13;5.53;;;;;;;;;;5117201;28;20484;-67
2022/11/10 05:45:26;;;;;;;16.77;6.57;;;;;;;;;;5116854;28;20446;-67
2022/11/10 05:47:53;;;;;;;12.50;6.10;;;;;;;;;;5116514;28;20213;-68
2022/11/10 05:50:22;;;;;;;20.33;6.25;;;;;;;;;;5116953;28;20471;-67
2022/11/10 05:52:50;;;;;;;24.83;6.73;;;;;;;;;;5116650;28;20209;-67
2022/11/10 05:55:18;;;;;;;21.70;8.37;;;;;;;;;;5117586;28;20941;-66
2022/11/10 05:57:45;;;;;;;15.83;6.07;;;;;;;;;;5116758;28;20973;-67
2022/11/10 06:00:15;;;;;;;16.27;5.93;;;;;;;;;;5116990;28;20445;-68
2022/11/10 06:02:43;;;;;;;24.00;8.07;;;;;;;;;;5117015;28;20510;-67
2022/11/10 06:05:10;;;;;;;17.50;6.73;;;;;;;;;;5116811;28;20434;-66
2022/11/10 06:07:38;;;;;;;17.93;6.17;;;;;;;;;;5116605;28;20826;-66
2022/11/10 06:10:06;;;;;;;22.87;6.20;;;;;;;;;;5116720;28;20446;-70
2022/11/10 06:12:35;;;;;;;20.10;6.07;;;;;;;;;;5116400;28;20446;-67
2022/11/10 06:15:03;;;;;;;25.00;7.27;;;;;;;;;;5116849;28;20446;-67
2022/11/10 06:17:31;;;;;;;14.10;6.67;;;;;;;;;;5116127;28;20496;-68
2022/11/10 06:19:59;;;;;;;12.10;5.80;;;;;;;;;;5116205;28;20533;-68
2022/11/10 06:22:26;;;;;;;15.37;6.03;;;;;;;;;;5115401;28;20974;-68
2022/11/10 06:24:53;;;;;;;20.77;6.55;;;;;;;;;;5116725;28;20443;-68
2022/11/10 06:27:20;;;;;;;12.63;5.90;;;;;;;;;;5116250;28;20221;-68
2022/11/10 06:29:47;;;;;;;16.00;7.20;;;;;;;;;;5115973;28;20442;-67
2022/11/10 06:32:15;;;;;;;17.10;7.60;;;;;;;;;;5116162;28;20517;-67
2022/11/10 06:34:44;;;;;;;17.33;7.23;;;;;;;;;;5115956;28;20443;-68
2022/11/10 06:37:11;;;;;;;18.40;6.67;;;;;;;;;;5116087;28;20442;-68
2022/11/10 06:39:38;;;;;;;25.00;7.05;;;;;;;;;;5116170;28;20439;-67
2022/11/10 06:42:05;;;;;;;25.97;6.83;;;;;;;;;;5115629;28;20231;-68
2022/11/10 06:44:33;;;;;;;16.30;6.93;;;;;;;;;;5116533;28;20523;-68
2022/11/10 06:47:00;;;;;;;19.77;6.80;;;;;;;;;;5115803;28;20477;-68
2022/11/10 06:49:27;;;;;;;15.80;6.30;;;;;;;;;;5115550;28;20452;-69
2022/11/10 06:51:55;;;;;;;20.73;7.20;;;;;;;;;;5116647;28;20962;-67
2022/11/10 06:54:23;;;;;;;17.20;7.03;;;;;;;;;;5115475;28;20473;-69
2022/11/10 06:56:50;;;;;;;22.17;7.70;;;;;;;;;;5115907;28;20521;-68
2022/11/10 06:59:17;;;;;;;18.67;8.30;;;;;;;;;;5115917;28;20283;-68
2022/11/10 07:01:44;;;;;;;13.53;7.57;;;;;;;;;;5115419;28;20439;-69
2022/11/10 07:04:14;;;;;;;22.10;7.33;;;;;;;;;;5115254;28;20928;-69
2022/11/10 07:06:41;;;;;;;18.70;6.93;;;;;;;;;;5116101;28;20449;-68
2022/11/10 07:09:10;;;;;;;24.00;7.80;;;;;;;;;;5115258;28;20288;-67
2022/11/10 07:11:37;;;;;;;23.38;7.90;;;;;;;;;;5115515;28;20461;-67
2022/11/10 07:14:04;;;;;;;14.00;7.15;;;;;;;;;;5115468;28;20220;-67
2022/11/10 07:16:31;;;;;;;17.75;7.28;;;;;;;;;;5115512;28;20199;-69
2022/11/10 07:18:59;;;;;;;12.97;7.47;;;;;;;;;;5115566;28;20597;-68
2022/11/10 07:21:26;;;;;;;18.00;7.03;;;;;;;;;;5115395;28;20530;-67
2022/11/10 07:23:53;;;;;;;20.73;8.80;;;;;;;;;;5114885;28;20443;-67
2022/11/10 07:26:22;;;;;;;16.93;7.60;;;;;;;;;;5114932;28;20449;-68
2022/11/10 07:28:49;;;;;;;19.63;6.93;;;;;;;;;;5114764;28;20478;-68
2022/11/10 07:31:16;;;;;;;20.30;7.60;;;;;;;;;;5115136;28;20474;-69
2022/11/10 07:33:44;;;;;;;22.80;7.50;;;;;;;;;;5113939;28;20522;-68
2022/11/10 07:36:11;;;;;;;21.27;9.27;;;;;;;;;;5114444;28;20461;-67
2022/11/10 07:38:39;;;;;;;19.27;8.20;;;;;;;;;;5115126;28;20537;-68
2022/11/10 07:41:06;;;;;;;17.25;7.03;;;;;;;;;;5114908;28;20446;-68
2022/11/10 07:43:35;;;;;;;19.13;8.18;;;;;;;;;;5115144;28;20228;-67
2022/11/10 07:46:02;;;;;;;12.40;6.80;;;;;;;;;;5114819;28;20279;-67
2022/11/10 07:48:29;;;;;;;22.13;7.37;;;;;;;;;;5114727;28;20527;-68
2022/11/10 07:50:56;;;;;;;20.55;7.63;;;;;;;;;;5114468;28;20446;-68
2022/11/10 07:53:24;;;;;;;14.97;7.40;;;;;;;;;;5114303;28;20200;-67
2022/11/10 07:55:51;;;;;;;19.80;10.20;;;;;;;;;;5114748;28;20991;-68
2022/11/10 07:58:18;;;;;;;20.27;7.00;;;;;;;;;;5114992;28;20478;-68
2022/11/10 08:00:47;;;;;;;24.20;7.83;;;;;;;;;;5114529;28;20439;-67
2022/11/10 08:03:16;;;;;;;16.02;7.10;;;;;;;;;;5114387;28;20525;-67
2022/11/10 08:05:43;;;;;;;13.93;7.07;;;;;;;;;;5114550;28;20200;-67
2022/11/10 08:08:10;;;;;;;12.90;6.75;;;;;;;;;;5114547;28;20244;-68
2022/11/10 08:10:38;;;;;;;23.27;6.70;;;;;;;;;;5114112;28;20249;-68
2022/11/10 08:13:06;;;;;;;15.03;6.40;;;;;;;;;;5113956;28;20541;-67
2022/11/10 08:15:34;;;;;;;24.50;7.70;;;;;;;;;;5114741;28;20443;-67
2022/11/10 08:18:04;;;;;;;17.40;5.57;;;;;;;;;;5114353;28;20453;-67
2022/11/10 08:20:31;;;;;;;15.90;6.43;;;;;;;;;;5114133;28;20439;-68
2022/11/10 08:22:59;;;;;;;15.77;5.90;;;;;;;;;;5114553;28;20221;-68
2022/11/10 08:25:27;;;;;;;15.33;5.97;;;;;;;;;;5113732;28;20453;-68
2022/11/10 08:28:01;;;;;;;15.93;5.75;;;;;;;;;;5114767;28;20527;-69
2022/11/10 08:30:29;;;;;;;12.87;6.40;;;;;;;;;;5114402;28;20230;-68
2022/11/10 08:32:57;;;;;;;14.90;6.10;;;;;;;;;;5113746;28;20548;-68
2022/11/10 08:35:26;;;;;;;19.83;6.87;;;;;;;;;;5114130;28;20492;-68
2022/11/10 08:37:54;;;;;;;16.80;6.97;;;;;;;;;;5114285;28;20475;-68
2022/11/10 08:40:21;;;;;;;14.20;5.87;;;;;;;;;;5113662;28;20442;-68
2022/11/10 08:42:49;;;;;;;13.50;5.83;;;;;;;;;;5114139;28;20569;-68
2022/11/10 08:45:16;;;;;;;22.50;6.43;;;;;;;;;;5113809;28;20531;-67
2022/11/10 08:47:44;;;;;;;18.90;6.40;;;;;;;;;;5113799;28;20472;-68
2022/11/10 08:50:11;;;;;;;13.97;7.23;;;;;;;;;;5113765;28;20438;-68
2022/11/10 08:52:40;;;;;;;20.77;5.70;;;;;;;;;;5113760;28;20439;-68
2022/11/10 08:55:07;;;;;;;20.70;6.73;;;;;;;;;;5113448;28;20878;-68
2022/11/10 08:57:35;;;;;;;17.83;6.17;;;;;;;;;;5113398;28;20447;-68
2022/11/10 09:00:02;;;;;;;17.03;6.60;;;;;;;;;;5113497;28;20450;-68
2022/11/10 09:02:29;;;;;;;15.23;5.97;;;;;;;;;;5113940;28;20493;-68
2022/11/10 09:04:56;;;;;;;19.90;7.13;;;;;;;;;;5112883;28;20931;-68
2022/11/10 09:07:23;;;;;;;21.33;5.50;;;;;;;;;;5113410;28;20530;-68
2022/11/10 09:09:52;;;;;;;14.60;5.60;;;;;;;;;;5113543;28;20831;-68
2022/11/10 09:12:19;;;;;;;15.60;6.00;;;;;;;;;;5113678;28;20911;-68
2022/11/10 09:14:46;;;;;;;9.93;5.00;;;;;;;;;;5113213;28;20960;-69
2022/11/10 09:17:14;;;;;;;8.87;5.70;;;;;;;;;;5113640;28;20444;-68
2022/11/10 09:19:41;;;;;;;9.63;4.97;;;;;;;;;;5113621;28;20496;-69
2022/11/10 09:22:13;;;;;;;20.33;5.67;;;;;;;;;;5113681;28;20441;-68
2022/11/10 09:24:40;;;;;;;19.50;5.97;;;;;;;;;;5113541;28;20779;-68
2022/11/10 09:27:09;;;;;;;12.97;5.80;;;;;;;;;;5113593;28;20450;-68
2022/11/10 09:29:37;;;;;;;11.27;4.20;;;;;;;;;;5113288;28;20478;-68
2022/11/10 09:32:04;;;;;;;15.27;5.70;;;;;;;;;;5114024;28;20806;-68
2022/11/10 09:34:31;;;;;;;13.83;5.60;;;;;;;;;;5113929;28;20443;-69
2022/11/10 09:36:59;;;;;;;19.27;5.17;;;;;;;;;;5113467;28;20543;-69
2022/11/10 09:39:26;;;;;;;20.07;5.67;;;;;;;;;;5112996;28;20491;-69
2022/11/10 09:41:53;;;;;;;16.03;5.03;;;;;;;;;;5113234;28;20511;-68
2022/11/10 09:44:22;;;;;;;12.47;5.17;;;;;;;;;;5113302;28;20512;-68
2022/11/10 09:46:52;;;;;;;13.40;5.03;;;;;;;;;;5112970;28;20531;-68
2022/11/10 09:49:26;;;;;;;11.43;4.50;;;;;;;;;;5113071;28;20834;-68
2022/11/10 09:51:54;;;;;;;12.10;4.33;;;;;;;;;;5113367;28;20433;-68
2022/11/10 09:54:31;;;;;;;11.93;4.47;;;;;;;;;;5112844;28;20445;-68
2022/11/10 09:57:00;;;;;;;14.93;5.87;;;;;;;;;;5113476;28;20483;-68
2022/11/10 09:59:29;;;;;;;11.77;4.17;;;;;;;;;;5117423;28;20451;-68
2022/11/10 10:02:00;;;;;;;12.73;5.13;;;;;;;;;;5116827;28;20444;-70
2022/11/10 10:04:54;;;;;;;14.20;4.93;;;;;;;;;;5117077;28;20525;-70
2022/11/10 10:07:23;;;;;;;13.97;4.43;;;;;;;;;;5116504;28;20918;-69
2022/11/10 10:09:53;;;;;;;16.03;5.40;;;;;;;;;;5116654;28;20660;-69
2022/11/10 10:12:27;;;;;;;25.63;6.40;;;;;;;;;;5116987;28;20444;-69
2022/11/10 10:15:09;;;;;;;12.00;4.13;;;;;;;;;;5116606;28;20461;-67
2022/11/10 10:17:40;;;;;;;14.87;4.50;;;;;;;;;;5113814;28;20448;-68
2022/11/10 10:20:13;;;;;;;10.20;4.83;;;;;;;;;;5116212;28;20468;-68
2022/11/10 10:22:54;;;;;;;17.47;4.83;;;;;;;;;;5116158;28;20978;-68
2022/11/10 10:25:22;;;;;;;16.37;5.00;;;;;;;;;;5116922;28;20510;-68
2022/11/10 10:27:52;;;;;;;13.27;4.23;;;;;;;;;;5116318;28;20444;-68
2022/11/10 10:30:20;;;;;;;14.97;4.30;;;;;;;;;;5116224;28;20925;-68
2022/11/10 10:32:50;;;;;;;21.33;4.10;;;;;;;;;;5115956;28;20929;-68
2022/11/10 10:35:18;;;;;;;14.53;4.50;;;;;;;;;;5116005;28;20453;-68
2022/11/10 10:37:48;;;;;;;15.20;5.00;;;;;;;;;;5115693;28;20532;-68
2022/11/10 10:40:16;;;;;;;12.43;4.67;;;;;;;;;;5115770;28;20449;-68
2022/11/10 10:42:43;;;;;;;16.53;4.57;;;;;;;;;;5115792;28;20484;-68
2022/11/10 10:45:14;;;;;;;15.23;4.67;;;;;;;;;;5115858;28;20494;-69
2022/11/10 10:47:42;;;;;;;11.73;4.50;;;;;;;;;;5116958;28;20443;-68
2022/11/10 10:50:21;;;;;;;24.67;4.60;;;;;;;;;;5115845;28;20843;-67
2022/11/10 10:53:06;;;;;;;11.83;4.30;;;;;;;;;;5116172;28;20425;-68
2022/11/10 10:55:33;;;;;;;8.03;3.60;;;;;;;;;;5116088;28;20428;-67
2022/11/10 10:58:01;;;;;;;10.37;3.70;;;;;;;;;;5115811;28;20453;-68
2022/11/10 11:00:29;;;;;;;13.77;4.53;;;;;;;;;;5115567;28;20533;-68
2022/11/10 11:03:03;;;;;;;11.70;4.10;;;;;;;;;;5115277;28;20441;-68
2022/11/10 11:05:31;;;;;;;17.30;5.73;;;;;;;;;;5115233;28;21078;-68
2022/11/10 11:08:00;;;;;;;15.87;4.07;;;;;;;;;;5116073;28;20441;-68
2022/11/10 11:10:27;;;;;;;11.90;4.60;;;;;;;;;;5115716;28;20458;-69
2022/11/10 11:12:54;;;;;;;9.50;3.80;;;;;;;;;;5115551;28;20453;-68
2022/11/10 11:15:25;;;;;;;15.87;4.13;;;;;;;;;;5115064;28;20446;-67
2022/11/10 11:17:56;;;;;;;13.77;4.93;;;;;;;;;;5115178;28;20517;-67
2022/11/10 11:20:27;;;;;;;11.13;3.60;;;;;;;;;;5115015;28;20440;-68
2022/11/10 11:22:57;;;;;;;17.97;3.90;;;;;;;;;;5114910;28;20916;-67
2022/11/10 11:25:28;;;;;;;14.07;3.70;;;;;;;;;;5114967;28;20437;-67
2022/11/10 11:28:02;;;;;;;17.83;4.47;;;;;;;;;;5114806;28;20433;-68
2022/11/10 11:30:32;;;;;;;13.00;4.00;;;;;;;;;;5114831;28;20459;-67
2022/11/10 11:33:05;;;;;;;9.43;3.73;;;;;;;;;;5114635;28;20442;-67
2022/11/10 11:35:38;;;;;;;15.17;4.40;;;;;;;;;;5114893;28;20464;-67
2022/11/10 11:38:11;;;;;;;13.00;4.30;;;;;;;;;;5114871;28;20438;-68
2022/11/10 11:40:44;;;;;;;10.80;4.00;;;;;;;;;;5115391;28;20440;-67
2022/11/10 11:43:19;;;;;;;15.90;4.57;;;;;;;;;;5114452;28;20465;-68
2022/11/10 11:45:49;;;;;;;12.90;3.50;;;;;;;;;;5114946;28;20445;-68
2022/11/10 11:48:33;;;;;;;15.27;4.43;;;;;;;;;;5114638;28;20569;-67
2022/11/10 11:51:04;;;;;;;9.90;3.73;;;;;;;;;;5114742;28;20429;-67
2022/11/10 11:53:40;;;;;;;15.30;3.67;;;;;;;;;;5114909;28;20426;-67
2022/11/10 11:56:17;;;;;;;12.90;3.67;;;;;;;;;;5114997;28;20524;-67
2022/11/10 11:58:45;;;;;;;12.13;4.20;;;;;;;;;;5114840;28;20763;-68
2022/11/10 12:01:18;;;;;;;9.90;3.80;;;;;;;;;;5114551;28;20452;-68
2022/11/10 12:04:06;;;;;;;12.90;3.23;;;;;;;;;;5114696;28;20466;-68
2022/11/10 12:06:41;;;;;;;12.13;4.10;;;;;;;;;;5114383;28;20443;-68
2022/11/10 12:09:15;;;;;;;13.33;4.13;;;;;;;;;;5114491;28;20558;-68
2022/11/10 12:11:51;;;;;;;9.47;3.07;;;;;;;;;;5114104;28;20453;-68
2022/11/10 12:14:20;;;;;;;7.17;3.03;;;;;;;;;;5113981;28;20433;-67
2022/11/10 12:16:53;;;;;;;10.63;3.17;;;;;;;;;;5114743;28;20489;-68
2022/11/10 12:19:25;;;;;;;16.63;3.10;;;;;;;;;;5114237;28;20529;-68
2022/11/10 12:21:55;;;;;;;9.03;3.33;;;;;;;;;;5113976;28;20441;-68
2022/11/10 12:24:39;;;;;;;11.70;3.37;;;;;;;;;;5113816;28;20446;-67
2022/11/10 12:27:12;;;;;;;15.13;4.00;;;;;;;;;;5114130;28;20460;-68
2022/11/10 12:29:42;;;;;;;16.80;3.33;;;;;;;;;;5114123;28;20470;-69
2022/11/10 12:32:12;;;;;;;10.33;3.00;;;;;;;;;;5114123;28;20965;-68
2022/11/10 12:34:42;;;;;;;17.50;3.63;;;;;;;;;;5113726;28;20934;-68
2022/11/10 12:37:13;;;;;;;9.20;4.13;;;;;;;;;;5114263;28;20794;-68
2022/11/10 12:39:49;;;;;;;9.00;4.13;;;;;;;;;;5113979;28;20453;-68
2022/11/10 12:42:19;;;;;;;11.03;4.67;;;;;;;;;;5113981;28;20470;-68
2022/11/10 12:44:54;;;;;;;14.00;4.77;;;;;;;;;;5114044;28;20433;-68
2022/11/10 12:47:23;;;;;;;13.50;3.63;;;;;;;;;;5113465;28;20923;-69
2022/11/10 12:49:53;;;;;;;11.37;4.17;;;;;;;;;;5114183;28;20481;-68
2022/11/10 12:52:24;;;;;;;12.17;3.70;;;;;;;;;;5113608;28;20474;-67
2022/11/10 12:54:52;;;;;;;8.83;3.00;;;;;;;;;;5114330;28;20466;-69
2022/11/10 12:57:22;;;;;;;17.13;3.50;;;;;;;;;;5113959;28;20472;-67
2022/11/10 12:59:54;;;;;;;14.87;4.47;;;;;;;;;;5113334;28;20449;-69
2022/11/10 13:02:29;;;;;;;9.60;3.33;;;;;;;;;;5113651;28;20430;-68
2022/11/10 13:05:15;;;;;;;9.73;3.20;;;;;;;;;;5113747;28;20445;-68
2022/11/10 13:07:43;;;;;;;7.33;3.07;;;;;;;;;;5113179;28;20448;-68
2022/11/10 13:10:22;;;;;;;9.83;3.10;;;;;;;;;;5113480;28;20482;-68
2022/11/10 13:12:59;;;;;;;8.87;4.40;;;;;;;;;;5113962;28;20444;-68
2022/11/10 13:15:46;;;;;;;13.40;3.47;;;;;;;;;;5113589;28;20445;-67
2022/11/10 13:18:22;;;;;;;6.60;2.97;;;;;;;;;;5113218;28;20915;-67
2022/11/10 13:20:50;;;;;;;11.17;3.50;;;;;;;;;;5113603;28;20441;-67
2022/11/10 13:23:21;;;;;;;10.50;3.20;;;;;;;;;;5113081;28;20445;-68
2022/11/10 13:25:53;;;;;;;8.33;3.00;;;;;;;;;;5113446;28;20530;-67
2022/11/10 13:28:39;;;;;;;11.30;3.40;;;;;;;;;;5113113;28;20465;-68
2022/11/10 13:31:21;;;;;;;5.60;2.60;;;;;;;;;;5113466;28;20788;-68
2022/11/10 13:34:03;;;;;;;14.60;3.30;;;;;;;;;;5115868;28;20448;-68
2022/11/10 13:36:41;;;;;;;10.13;2.27;;;;;;;;;;5117228;28;20910;-68
2022/11/10 13:39:22;;;;;;;15.83;3.70;;;;;;;;;;5117298;28;20444;-68
2022/11/10 13:41:51;;;;;;;10.47;2.60;;;;;;;;;;5116835;28;20455;-68
2022/11/10 13:44:24;;;;;;;13.90;2.70;;;;;;;;;;5117069;28;20437;-68
2022/11/10 13:46:58;;;;;;;11.73;2.90;;;;;;;;;;5117162;28;20433;-68
2022/11/10 13:49:29;;;;;;;14.10;2.80;;;;;;;;;;5117086;28;20476;-68
2022/11/10 13:52:05;;;;;;;14.30;3.83;;;;;;;;;;5117181;28;20440;-68
2022/11/10 13:54:43;;;;;;;17.97;3.70;;;;;;;;;;5116837;28;20421;-69
2022/11/10 13:57:21;;;;;;;16.60;3.63;;;;;;;;;;5116692;28;20429;-65
2022/11/10 13:59:51;;;;;;;10.23;3.40;;;;;;;;;;5116948;28;20529;-67
2022/11/10 14:02:48;;;;;;;5.70;2.73;;;;;;;;;;5117271;28;20431;-66
2022/11/10 14:05:37;;;;;;;8.97;3.17;;;;;;;;;;5033867;28;20532;-66
2022/11/10 14:08:06;;;;;;;9.90;2.70;;;;;;;;;;5109395;28;20457;-66
2022/11/10 14:10:39;;;;;;;8.50;3.00;;;;;;;;;;5116262;28;20481;-65
2022/11/10 14:13:12;;;;;;;11.30;2.63;;;;;;;;;;5116892;28;20453;-66
2022/11/10 14:15:41;;;;;;;6.27;3.37;;;;;;;;;;5116008;28;20462;-65
2022/11/10 14:18:17;;;;;;;5.83;2.40;;;;;;;;;;5114907;27;20464;-66
2022/11/10 14:20:45;;;;;;;6.60;2.90;;;;;;;;;;5115825;28;20434;-65
2022/11/10 14:23:17;;;;;;;7.70;3.17;;;;;;;;;;5115373;28;20441;-66
2022/11/10 14:25:44;;;;;;;13.10;2.87;;;;;;;;;;5116355;28;20430;-66
2022/11/10 14:28:26;;;;;;;5.90;2.40;;;;;;;;;;5115658;28;20551;-66
2022/11/10 14:30:54;;;;;;;8.20;2.20;;;;;;;;;;5115469;28;20499;-66
2022/11/10 14:33:22;;;;;;;8.20;2.33;;;;;;;;;;5115689;28;21015;-66
2022/11/10 14:35:50;;;;;;;8.50;2.70;;;;;;;;;;5116245;28;20546;-66
2022/11/10 14:38:19;;;;;;;6.70;2.27;;;;;;;;;;5115619;28;20438;-66
2022/11/10 14:40:47;;;;;;;6.93;2.53;;;;;;;;;;5115941;28;20438;-65
2022/11/10 14:43:29;;;;;;;5.80;2.43;;;;;;;;;;5115439;28;20477;-66
2022/11/10 14:45:56;;;;;;;7.10;2.37;;;;;;;;;;5115740;28;20473;-66
2022/11/10 14:48:25;;;;;;;11.20;3.13;;;;;;;;;;5115734;28;20520;-65
2022/11/10 14:50:53;;;;;;;9.77;2.93;;;;;;;;;;5115474;28;20474;-66
2022/11/10 14:53:21;;;;;;;5.13;2.47;;;;;;;;;;5115406;28;20447;-67
2022/11/10 14:55:51;;;;;;;8.10;2.53;;;;;;;;;;5115330;28;20545;-66
2022/11/10 14:58:21;;;;;;;7.27;2.43;;;;;;;;;;5115395;28;20446;-66
2022/11/10 15:00:50;;;;;;;13.80;2.90;;;;;;;;;;5115585;28;20449;-67
2022/11/10 15:03:20;;;;;;;12.50;2.87;;;;;;;;;;5115584;28;20442;-66
2022/11/10 15:05:48;;;;;;;7.30;2.60;;;;;;;;;;5115369;28;20486;-66